Time;durP1;ratioP1;P1;durP2;ratioP2;P2;SDS_P1;SDS_P2;PMS_P1;PMS_P2;Temp;Humidity;BMP_temperature;BMP_pressure;BME280_temperature;BME280_humidity;BME280_pressure;Samples;Min_cycle;Max_cycle;Signal;HPM_P1;HPM_P2
2021/07/19 00:01:55;;;;;;;5.97;3.47;;;;;;;29.05;58.92;100661.22;5073150;27;69847;-31
2021/07/19 00:04:27;;;;;;;6.03;3.17;;;;;;;29.00;59.67;100669.09;5073953;27;66228;-31
2021/07/19 00:06:57;;;;;;;5.50;3.60;;;;;;;28.95;60.42;100673.25;5074493;27;69140;-31
2021/07/19 00:09:28;;;;;;;4.40;4.00;;;;;;;28.95;60.71;100672.44;5071312;27;66385;-31
2021/07/19 00:11:59;;;;;;;9.02;4.50;;;;;;;28.91;62.04;100672.00;5069844;27;70193;-31
2021/07/19 00:14:32;;;;;;;7.15;4.22;;;;;;;28.85;60.92;100672.88;5070531;27;43377;-31
2021/07/19 00:17:03;;;;;;;8.90;4.20;;;;;;;28.82;61.22;100684.09;5071471;27;69879;-30
2021/07/19 00:19:35;;;;;;;4.40;4.10;;;;;;;28.79;62.80;100684.53;5073216;27;65565;-32
2021/07/19 00:22:06;;;;;;;5.88;3.85;;;;;;;28.79;62.21;100689.91;5082198;27;70244;-33
2021/07/19 00:24:38;;;;;;;5.72;4.40;;;;;;;28.66;61.78;100668.34;5057833;27;65955;-33
2021/07/19 00:27:09;;;;;;;5.25;4.00;;;;;;;28.81;62.42;100687.84;5070992;27;70057;-32
2021/07/19 00:29:39;;;;;;;4.38;3.70;;;;;;;28.80;61.82;100691.56;5075815;27;66452;-32
2021/07/19 00:32:10;;;;;;;5.20;3.83;;;;;;;28.82;61.97;100686.78;5073484;27;69961;-32
2021/07/19 00:34:40;;;;;;;3.92;3.53;;;;;;;28.87;61.58;100703.19;5070214;27;65953;-32
2021/07/19 00:37:29;;;;;;;4.15;3.75;;;;;;;28.88;61.65;100704.84;5071987;27;69912;-33
2021/07/19 00:39:59;;;;;;;4.50;3.50;;;;;;;28.91;61.54;100693.63;5073268;27;65281;-33
2021/07/19 00:42:30;;;;;;;9.82;4.20;;;;;;;29.01;61.39;100708.56;5074652;27;70801;-33
2021/07/19 00:45:01;;;;;;;3.75;3.45;;;;;;;29.06;61.36;100711.47;5073966;27;65657;-33
2021/07/19 00:47:31;;;;;;;3.00;2.72;;;;;;;29.12;60.65;100705.25;5074304;27;70249;-33
2021/07/19 00:50:07;;;;;;;3.75;3.45;;;;;;;29.16;60.87;100717.25;5072035;27;65898;-33
2021/07/19 00:52:39;;;;;;;6.25;3.10;;;;;;;29.02;60.62;100691.31;5071295;27;70142;-33
2021/07/19 00:55:11;;;;;;;3.78;3.25;;;;;;;29.27;60.01;100723.88;5068897;27;65307;-32
2021/07/19 00:57:46;;;;;;;3.20;2.90;;;;;;;29.10;59.79;100694.63;5072830;27;68923;-32
2021/07/19 01:00:23;;;;;;;;;;;;;;;29.12;61.38;100740.34;5073600;27;65562;-32
2021/07/19 01:02:57;;;;;;;5.35;4.03;;;;;;;29.34;61.39;100728.22;5068690;27;69667;-32
2021/07/19 01:05:29;;;;;;;4.82;4.03;;;;;;;29.24;61.66;100702.69;5064710;27;66108;-32
2021/07/19 01:07:59;;;;;;;;;;;;;;;29.30;62.46;100740.50;5068758;27;70696;-33
2021/07/19 01:10:31;;;;;;;5.70;3.92;;;;;;;29.54;61.88;100746.25;5064513;27;65127;-33
2021/07/19 01:13:03;;;;;;;5.13;4.47;;;;;;;29.57;61.84;100743.94;5064486;27;69990;-33
2021/07/19 01:15:41;;;;;;;3.80;3.50;;;;;;;29.68;61.25;100758.69;5062342;27;66577;-32
2021/07/19 01:18:19;;;;;;;4.68;3.75;;;;;;;29.72;61.80;100764.47;5079175;27;70420;-33
2021/07/19 01:21:02;;;;;;;5.03;4.13;;;;;;;29.75;61.53;100761.34;5063304;27;65011;-34
2021/07/19 01:24:06;;;;;;;4.85;3.67;;;;;;;29.74;61.68;100757.81;5064520;27;70261;-32
2021/07/19 01:27:01;;;;;;;6.10;4.10;;;;;;;29.82;61.73;100762.16;5059910;27;66186;-33
2021/07/19 01:29:38;;;;;;;6.97;3.53;;;;;;;29.84;61.14;100758.19;5066329;27;69008;-33
2021/07/19 01:32:12;;;;;;;5.38;3.85;;;;;;;29.84;61.37;100763.59;5064138;27;66091;-32
2021/07/19 01:34:44;;;;;;;5.77;3.60;;;;;;;29.91;61.38;100765.41;5066913;27;69310;-33
2021/07/19 01:37:22;;;;;;;5.30;3.53;;;;;;;29.98;60.84;100774.34;5064057;27;65998;-33
2021/07/19 01:40:06;;;;;;;4.45;3.47;;;;;;;29.64;61.32;100708.78;5062540;27;70049;-33
2021/07/19 01:42:46;;;;;;;4.55;4.15;;;;;;;30.03;61.61;100766.38;5065508;27;66049;-32
2021/07/19 01:45:18;;;;;;;4.43;4.03;;;;;;;30.05;61.55;100775.13;5066535;27;70251;-33
2021/07/19 01:48:00;;;;;;;4.32;3.45;;;;;;;29.91;61.39;100741.09;5065571;27;66327;-33
2021/07/19 01:50:39;;;;;;;6.10;3.83;;;;;;;30.10;61.61;100775.28;5068928;27;69114;-32
2021/07/19 01:53:22;;;;;;;3.80;3.50;;;;;;;30.13;61.01;100787.56;5070642;27;66369;-33
2021/07/19 01:55:55;;;;;;;9.77;3.78;;;;;;;30.13;61.13;100784.84;5070133;27;70566;-32
2021/07/19 01:58:30;;;;;;;7.05;3.95;;;;;;;30.17;61.26;100788.78;5056550;27;66354;-33
2021/07/19 02:01:16;;;;;;;4.88;3.50;;;;;;;30.20;61.51;100794.59;5066962;27;70327;-32
2021/07/19 02:03:52;;;;;;;7.75;3.55;;;;;;;30.20;61.24;100800.00;5064318;27;66837;-32
2021/07/19 02:06:26;;;;;;;8.57;4.18;;;;;;;30.22;61.39;100803.34;5066445;27;69650;-33
2021/07/19 02:09:06;;;;;;;7.00;3.90;;;;;;;30.08;61.19;100765.75;5065307;27;66249;-34
2021/07/19 02:12:00;;;;;;;8.10;3.78;;;;;;;30.27;61.23;100794.56;5091458;27;70201;-33
2021/07/19 02:14:46;;;;;;;6.32;3.67;;;;;;;30.30;61.35;100794.13;5073977;27;66534;-33
2021/07/19 02:17:22;;;;;;;7.60;3.85;;;;;;;30.33;61.99;100793.69;5072921;27;70296;-33
2021/07/19 02:19:59;;;;;;;8.60;4.03;;;;;;;30.35;61.34;100794.31;5053615;27;67207;-33
2021/07/19 02:22:38;;;;;;;6.57;3.80;;;;;;;30.37;61.50;100797.63;5042251;27;69056;-33
2021/07/19 02:25:41;;;;;;;6.55;3.35;;;;;;;30.11;59.27;100763.41;5059780;27;66152;-33
2021/07/19 02:28:22;;;;;;;14.70;3.38;;;;;;;30.23;58.03;100794.19;5067179;27;70085;-31
2021/07/19 02:31:05;;;;;;;16.48;3.47;;;;;;;30.06;56.01;100791.13;5061292;27;65168;-31
2021/07/19 02:33:50;;;;;;;16.60;3.20;;;;;;;29.97;55.00;100778.91;5070940;27;70688;-32
2021/07/19 02:36:30;;;;;;;21.15;3.65;;;;;;;29.83;53.23;100775.44;5067498;27;66548;-32
2021/07/19 02:39:18;;;;;;;16.52;3.47;;;;;;;29.77;53.90;100773.59;5074666;27;70410;-32
2021/07/19 02:41:51;;;;;;;11.07;3.50;;;;;;;29.69;53.54;100776.53;5054679;27;65699;-33
2021/07/19 02:44:26;;;;;;;18.10;3.80;;;;;;;29.59;52.64;100776.16;5073196;27;69832;-33
2021/07/19 02:47:24;;;;;;;8.45;3.17;;;;;;;29.50;51.29;100777.41;5073610;27;64877;-33
2021/07/19 02:50:07;;;;;;;11.77;3.45;;;;;;;29.45;50.29;100769.13;5069756;27;69428;-32
2021/07/19 02:52:43;;;;;;;8.20;3.45;;;;;;;29.24;49.45;100738.66;5073074;27;66470;-33
2021/07/19 02:55:26;;;;;;;8.20;3.25;;;;;;;29.01;49.18;100711.28;5055712;27;70114;-33
2021/07/19 02:58:02;;;;;;;16.58;3.55;;;;;;;29.29;48.39;100754.22;5060082;27;66125;-33
2021/07/19 03:00:35;;;;;;;16.80;3.60;;;;;;;29.26;49.35;100747.38;5070541;27;69701;-32
2021/07/19 03:03:18;;;;;;;18.75;3.35;;;;;;;29.31;48.27;100763.78;5068206;27;66050;-32
2021/07/19 03:06:21;;;;;;;16.58;4.22;;;;;;;29.30;48.20;100759.41;5048327;27;69547;-33
2021/07/19 03:09:21;;;;;;;35.45;4.05;;;;;;;29.18;47.71;100731.41;5069994;27;66087;-35
2021/07/19 03:12:08;;;;;;;29.90;4.72;;;;;;;29.23;47.37;100750.50;5072613;27;69774;-34
2021/07/19 03:14:43;;;;;;;20.45;4.03;;;;;;;29.20;47.05;100737.44;5089682;27;65443;-33
2021/07/19 03:17:21;;;;;;;19.02;4.72;;;;;;;29.09;47.55;100711.06;5066734;27;68714;-33
2021/07/19 03:20:05;;;;;;;19.40;3.88;;;;;;;29.20;47.53;100732.03;5071067;27;66349;-34
2021/07/19 03:22:45;;;;;;;24.45;4.57;;;;;;;29.23;46.96;100734.28;5067993;27;69477;-34
2021/07/19 03:25:36;;;;;;;12.52;3.38;;;;;;;29.23;46.66;100734.28;5066883;27;65427;-35
2021/07/19 03:28:17;;;;;;;22.77;3.28;;;;;;;29.26;46.25;100733.03;5072223;27;70412;-36
2021/07/19 03:31:03;;;;;;;24.38;3.45;;;;;;;29.25;46.48;100734.06;5071632;27;65546;-35
2021/07/19 03:33:43;;;;;;;14.07;3.20;;;;;;;29.22;46.01;100732.63;5055210;27;68441;-37
2021/07/19 03:36:24;;;;;;;6.22;3.17;;;;;;;29.24;45.67;100735.94;5069928;27;65265;-36
2021/07/19 03:39:01;;;;;;;16.10;3.10;;;;;;;29.25;46.42;100732.19;5069934;27;70193;-34
2021/07/19 03:41:53;;;;;;;13.35;2.75;;;;;;;29.27;46.43;100734.69;5057219;27;65919;-36
2021/07/19 03:44:29;;;;;;;11.68;3.15;;;;;;;29.28;46.07;100726.38;5053318;27;69219;-36
2021/07/19 03:47:10;;;;;;;18.65;2.90;;;;;;;29.35;45.22;100729.88;5068072;27;65836;-39
2021/07/19 03:50:03;;;;;;;16.80;2.75;;;;;;;29.39;45.51;100717.63;5070749;27;69686;-39
2021/07/19 03:52:51;;;;;;;8.15;2.05;;;;;;;29.43;46.41;100728.00;5070731;27;65378;-36
2021/07/19 03:55:36;;;;;;;11.07;2.38;;;;;;;29.50;46.06;100723.38;5040381;27;70308;-37
2021/07/19 03:58:14;;;;;;;9.95;2.42;;;;;;;29.51;46.39;100733.97;5066298;27;66482;-35
2021/07/19 04:01:03;;;;;;;9.82;1.95;;;;;;;29.53;46.03;100731.03;5024735;28;69422;-37
2021/07/19 04:03:48;;;;;;;;;;;;;;;29.31;45.77;100736.75;5057427;27;65843;-35
2021/07/19 04:06:31;;;;;;;5.28;1.75;;;;;;;29.55;45.22;100718.97;5062275;27;70598;-34
2021/07/19 04:09:12;;;;;;;12.55;2.00;;;;;;;29.59;44.73;100716.69;5070867;27;65973;-35
2021/07/19 04:11:50;;;;;;;14.00;2.00;;;;;;;29.50;45.43;100689.06;5058398;27;70206;-35
2021/07/19 04:14:34;;;;;;;5.95;2.13;;;;;;;29.65;45.28;100705.03;5052448;27;67022;-36
2021/07/19 04:17:11;;;;;;;26.65;2.47;;;;;;;29.70;44.53;100702.53;5066329;27;69087;-38
2021/07/19 04:19:45;;;;;;;9.27;2.17;;;;;;;29.71;45.20;100693.34;5039789;27;66648;-36
2021/07/19 04:22:24;;;;;;;5.00;2.03;;;;;;;29.76;44.52;100693.53;5040161;28;70064;-33
2021/07/19 04:25:19;;;;;;;6.07;2.13;;;;;;;29.77;45.85;100684.38;5068585;27;66321;-39
2021/07/19 04:28:01;;;;;;;4.72;2.03;;;;;;;29.78;46.61;100680.66;5042784;28;69949;-35
2021/07/19 04:30:38;;;;;;;11.70;2.20;;;;;;;29.82;46.43;100689.13;5041528;27;65613;-39
2021/07/19 04:33:25;;;;;;;24.73;2.90;;;;;;;29.78;46.32;100672.53;5069665;27;69982;-41
2021/07/19 04:35:58;;;;;;;22.13;2.38;;;;;;;29.75;46.18;100670.25;5074033;27;65836;-35
2021/07/19 04:38:31;;;;;;;13.52;3.05;;;;;;;29.73;46.12;100664.25;5071306;27;69428;-37
2021/07/19 04:41:10;;;;;;;19.60;2.28;;;;;;;29.72;46.13;100673.38;5071943;27;66347;-40
2021/07/19 04:43:42;;;;;;;8.80;2.67;;;;;;;29.67;46.09;100670.53;5038944;27;70106;-35
2021/07/19 04:46:14;;;;;;;5.75;2.03;;;;;;;29.65;45.37;100671.78;5039098;28;64677;-35
2021/07/19 04:48:46;;;;;;;20.23;1.93;;;;;;;29.44;45.42;100638.59;5056286;27;69887;-36
2021/07/19 04:51:17;;;;;;;10.55;1.90;;;;;;;29.58;44.86;100666.38;5067764;27;66109;-36
2021/07/19 04:53:50;;;;;;;7.95;1.92;;;;;;;29.57;44.79;100670.13;5065668;27;69721;-34
2021/07/19 04:56:22;;;;;;;8.88;1.88;;;;;;;29.53;44.71;100672.44;5071245;27;65407;-34
2021/07/19 04:58:55;;;;;;;5.90;2.05;;;;;;;29.53;44.35;100660.78;5076815;27;70378;-37
2021/07/19 05:01:29;;;;;;;5.13;1.98;;;;;;;29.48;43.95;100658.75;5072340;27;66641;-36
2021/07/19 05:04:06;;;;;;;7.20;1.70;;;;;;;29.13;44.43;100604.25;5075448;27;70004;-35
2021/07/19 05:06:38;;;;;;;6.25;2.00;;;;;;;29.40;43.98;100646.31;5075394;27;66234;-34
2021/07/19 05:09:15;;;;;;;2.55;1.98;;;;;;;29.45;44.31;100652.91;5071734;27;70158;-36
2021/07/19 05:11:50;;;;;;;;;;;;;;;29.15;44.14;100645.41;5075323;27;66513;-34
2021/07/19 05:14:22;;;;;;;6.32;1.60;;;;;;;29.39;43.93;100658.16;5074170;27;70415;-35
2021/07/19 05:17:01;;;;;;;3.00;1.80;;;;;;;29.41;43.25;100644.44;5073952;27;65584;-35
2021/07/19 05:19:36;;;;;;;4.25;2.03;;;;;;;29.38;43.13;100640.28;5073934;27;68962;-34
2021/07/19 05:22:17;;;;;;;3.88;1.55;;;;;;;29.42;43.29;100629.03;5068719;27;66200;-34
2021/07/19 05:24:54;;;;;;;3.35;1.90;;;;;;;29.43;43.56;100619.91;5076021;27;70030;-35
2021/07/19 05:27:25;;;;;;;2.10;1.80;;;;;;;29.37;42.89;100606.22;5071856;27;65384;-37
2021/07/19 05:29:55;;;;;;;2.85;1.80;;;;;;;29.43;42.30;100617.19;5074456;27;70385;-36
2021/07/19 05:32:25;;;;;;;2.53;1.60;;;;;;;29.42;42.74;100602.88;5072816;27;65585;-34
2021/07/19 05:34:58;;;;;;;3.33;2.10;;;;;;;29.43;42.80;100595.59;5064962;27;69165;-35
2021/07/19 05:37:29;;;;;;;2.05;1.52;;;;;;;29.42;42.71;100604.72;5075158;27;65409;-38
2021/07/19 05:39:59;;;;;;;3.28;2.30;;;;;;;29.40;42.16;100596.84;5077032;27;70438;-36
2021/07/19 05:42:29;;;;;;;3.30;1.98;;;;;;;29.40;42.55;100589.56;5077831;27;66396;-36
2021/07/19 05:44:59;;;;;;;2.63;2.10;;;;;;;29.43;42.53;100587.47;5080529;27;70232;-35
2021/07/19 05:47:29;;;;;;;3.40;1.60;;;;;;;29.40;42.39;100577.94;5073376;27;66925;-33
2021/07/19 05:50:02;;;;;;;3.42;1.70;;;;;;;29.45;42.47;100570.00;5073166;27;71299;-36
2021/07/19 05:52:34;;;;;;;2.05;1.80;;;;;;;29.47;42.50;100569.78;5070054;27;65980;-35
2021/07/19 05:55:06;;;;;;;2.47;1.38;;;;;;;29.28;42.09;100534.56;5070974;27;69978;-34
2021/07/19 05:57:37;;;;;;;6.00;1.98;;;;;;;29.40;42.72;100540.94;5071522;27;66045;-38
2021/07/19 06:00:14;;;;;;;1.55;1.45;;;;;;;29.56;42.62;100554.94;5070711;27;70497;-36
2021/07/19 06:02:45;;;;;;;1.95;1.40;;;;;;;29.60;42.03;100545.34;5068864;27;66121;-37
2021/07/19 06:05:15;;;;;;;3.60;1.52;;;;;;;29.59;42.60;100536.44;5068556;27;70611;-36
2021/07/19 06:07:46;;;;;;;8.50;1.80;;;;;;;29.64;41.98;100543.88;5069019;27;66047;-37
2021/07/19 06:10:17;;;;;;;9.00;1.80;;;;;;;29.68;41.79;100531.59;5068312;27;69686;-38
2021/07/19 06:12:49;;;;;;;6.43;1.60;;;;;;;29.69;41.93;100533.25;5070618;27;66208;-37
2021/07/19 06:15:20;;;;;;;2.35;1.58;;;;;;;29.70;41.59;100529.50;5060140;27;70464;-35
2021/07/19 06:17:54;;;;;;;4.18;2.00;;;;;;;29.72;41.48;100538.22;5068186;27;66624;-36
2021/07/19 06:20:30;;;;;;;;;;;;;;;29.48;41.50;100520.91;5069669;27;70105;-36
2021/07/19 06:23:03;;;;;;;4.10;1.50;;;;;;;29.61;41.05;100504.59;5056366;28;67784;-36
2021/07/19 06:25:35;;;;;;;2.08;1.40;;;;;;;29.60;40.93;100485.91;5072632;27;70078;-37
2021/07/19 06:28:06;;;;;;;4.28;2.53;;;;;;;29.74;40.80;100509.09;5071752;27;65933;-36
2021/07/19 06:30:37;;;;;;;2.13;1.58;;;;;;;29.79;41.25;100514.66;5073892;27;70248;-36
2021/07/19 06:33:07;;;;;;;2.30;1.98;;;;;;;29.78;41.07;100494.09;5074525;27;66040;-35
2021/07/19 06:35:38;;;;;;;3.03;1.75;;;;;;;29.81;40.66;100499.06;5072316;27;70396;-41
2021/07/19 06:38:09;;;;;;;4.63;1.50;;;;;;;29.81;40.88;100490.94;5074462;27;65413;-38
2021/07/19 06:40:39;;;;;;;3.97;2.28;;;;;;;29.82;40.88;100489.06;5070771;27;69780;-36
2021/07/19 06:43:10;;;;;;;2.35;1.85;;;;;;;29.79;40.78;100474.09;5071889;27;66381;-37
2021/07/19 06:45:40;;;;;;;3.25;2.00;;;;;;;29.80;39.92;100478.44;5068579;27;70569;-41
2021/07/19 06:48:11;;;;;;;2.30;1.80;;;;;;;29.75;40.31;100504.50;5072928;27;65734;-39
2021/07/19 06:50:42;;;;;;;12.98;1.80;;;;;;;29.80;41.94;100570.38;5071889;27;69671;-35
2021/07/19 06:53:13;;;;;;;8.68;2.03;;;;;;;29.75;42.29;100499.09;5073958;27;66083;-37
2021/07/19 06:55:45;;;;;;;15.55;2.42;;;;;;;29.83;42.33;100478.00;5079286;27;69515;-35
2021/07/19 06:58:17;;;;;;;13.45;2.72;;;;;;;29.77;42.96;100468.09;5076994;27;66346;-36
2021/07/19 07:00:49;;;;;;;14.45;2.60;;;;;;;29.76;42.05;100479.13;5068994;27;69422;-37
2021/07/19 07:03:20;;;;;;;;;;;;;;;29.47;41.80;100496.81;5074558;27;66034;-35
2021/07/19 07:05:56;;;;;;;8.18;2.30;;;;;;;29.69;41.27;100479.19;5072729;27;69475;-35
2021/07/19 07:08:27;;;;;;;4.05;2.53;;;;;;;29.62;41.41;100456.78;5076544;27;66273;-36
2021/07/19 07:11:00;;;;;;;13.10;2.30;;;;;;;29.63;40.48;100466.56;5069169;27;69933;-34
2021/07/19 07:13:31;;;;;;;5.85;2.60;;;;;;;29.61;40.98;100450.56;5058284;27;65500;-35
2021/07/19 07:16:09;;;;;;;6.03;2.58;;;;;;;29.64;41.33;100465.50;5071619;27;70061;-35
2021/07/19 07:18:43;;;;;;;3.80;2.10;;;;;;;29.64;40.65;100454.69;5074759;27;66111;-34
2021/07/19 07:21:20;;;;;;;2.97;2.38;;;;;;;29.64;40.55;100464.69;5069244;27;70335;-36
2021/07/19 07:23:50;;;;;;;3.65;2.70;;;;;;;29.67;40.20;100456.97;5069601;27;65918;-34
2021/07/19 07:26:21;;;;;;;3.35;2.00;;;;;;;29.70;40.77;100458.38;5051976;27;70905;-35
2021/07/19 07:28:59;;;;;;;13.57;2.83;;;;;;;29.68;39.86;100445.09;5074174;27;66157;-36
2021/07/19 07:31:33;;;;;;;6.50;2.40;;;;;;;29.70;40.41;100444.84;5077263;27;69660;-39
2021/07/19 07:34:05;;;;;;;13.32;2.70;;;;;;;29.70;40.53;100432.19;5073721;27;66013;-35
2021/07/19 07:36:35;;;;;;;;;;;;;;;29.47;40.71;100427.38;5054316;27;70179;-37
2021/07/19 07:39:07;;;;;;;10.55;3.08;;;;;;;29.66;41.03;100424.75;5070378;27;66128;-33
2021/07/19 07:41:37;;;;;;;6.07;2.92;;;;;;;29.70;40.65;100426.78;5047690;27;68520;-33
2021/07/19 07:44:09;;;;;;;13.10;3.28;;;;;;;29.71;41.06;100417.63;5067577;27;66709;-33
2021/07/19 07:46:42;;;;;;;12.95;3.25;;;;;;;29.75;41.84;100402.59;5053738;27;70525;-35
2021/07/19 07:49:13;;;;;;;21.27;3.00;;;;;;;29.76;42.21;100412.38;5066186;27;66194;-35
2021/07/19 07:51:44;;;;;;;7.68;3.40;;;;;;;29.74;42.55;100403.66;5053400;27;69847;-34
2021/07/19 07:54:16;;;;;;;6.45;3.47;;;;;;;29.78;42.52;100396.75;5069308;27;65483;-41
2021/07/19 07:56:47;;;;;;;21.55;3.53;;;;;;;29.77;42.40;100395.09;5066876;27;70380;-36
2021/07/19 07:59:29;;;;;;;44.22;3.47;;;;;;;29.75;42.70;100383.66;5064182;27;66209;-36
2021/07/19 08:02:01;;;;;;;39.67;4.00;;;;;;;29.77;43.30;100373.47;5072420;27;69080;-34
2021/07/19 08:04:33;;;;;;;60.25;4.07;;;;;;;29.84;44.19;100389.63;5072536;27;66179;-36
2021/07/19 08:07:09;;;;;;;44.58;4.18;;;;;;;29.84;43.36;100373.41;5068323;27;70072;-37
2021/07/19 08:09:43;;;;;;;41.72;4.50;;;;;;;29.81;43.12;100374.69;5054694;27;65351;-34
2021/07/19 08:12:14;;;;;;;30.50;4.38;;;;;;;29.78;43.30;100375.13;5063531;27;69813;-34
2021/07/19 08:14:45;;;;;;;33.42;4.47;;;;;;;29.75;42.89;100380.97;5070976;27;65506;-34
2021/07/19 08:17:16;;;;;;;38.10;4.70;;;;;;;29.75;42.88;100399.88;5069577;27;70051;-36
2021/07/19 08:19:56;;;;;;;25.95;4.45;;;;;;;29.71;43.08;100397.88;5068156;27;66336;-37
2021/07/19 08:22:31;;;;;;;28.88;4.10;;;;;;;29.72;42.82;100467.91;5042975;27;68395;-35
2021/07/19 08:25:02;;;;;;;35.65;4.45;;;;;;;29.68;43.45;100518.09;5070193;27;65895;-34
2021/07/19 08:27:34;;;;;;;30.13;4.35;;;;;;;29.66;43.08;100522.88;5071615;27;69993;-35
2021/07/19 08:30:05;;;;;;;18.83;3.72;;;;;;;29.73;44.17;100566.09;5070357;27;65876;-35
2021/07/19 08:32:36;;;;;;;13.35;3.88;;;;;;;29.71;46.35;100574.41;5073446;27;70157;-35
2021/07/19 08:35:12;;;;;;;10.18;4.30;;;;;;;29.72;46.57;100589.56;5072180;27;66204;-34
2021/07/19 08:37:46;;;;;;;12.38;4.07;;;;;;;29.67;45.97;100589.44;5052044;27;70335;-38
2021/07/19 08:40:20;;;;;;;10.40;3.67;;;;;;;29.65;46.21;100615.84;5066278;27;66182;-36
2021/07/19 08:42:55;;;;;;;11.52;3.65;;;;;;;29.59;45.20;100619.41;5037828;27;71173;-39
2021/07/19 08:45:31;;;;;;;6.40;3.30;;;;;;;29.50;45.69;100613.38;5053532;28;66794;-32
2021/07/19 08:48:02;;;;;;;10.05;3.53;;;;;;;29.49;45.02;100619.03;5070756;27;69636;-35
2021/07/19 08:50:33;;;;;;;14.70;3.28;;;;;;;29.45;44.72;100639.41;5074917;27;66416;-33
2021/07/19 08:53:03;;;;;;;10.00;3.47;;;;;;;29.38;44.90;100653.78;5075302;27;69634;-34
2021/07/19 08:55:35;;;;;;;6.15;3.13;;;;;;;29.32;44.97;100646.56;5074434;27;66001;-34
2021/07/19 08:58:06;;;;;;;6.47;3.13;;;;;;;29.28;44.48;100660.69;5061661;27;70220;-34
2021/07/19 09:00:38;;;;;;;9.40;3.13;;;;;;;29.23;44.17;100666.75;5073268;27;66095;-36
2021/07/19 09:03:08;;;;;;;8.35;3.20;;;;;;;29.22;45.29;100673.19;5070950;27;70132;-34
2021/07/19 09:05:39;;;;;;;25.20;3.13;;;;;;;29.21;45.53;100668.84;5070233;27;65520;-32
2021/07/19 09:08:09;;;;;;;8.63;2.60;;;;;;;29.17;44.82;100649.53;5068959;27;70548;-32
2021/07/19 09:10:40;;;;;;;10.55;2.80;;;;;;;29.12;45.64;100633.13;5069619;27;65590;-34
2021/07/19 09:13:18;;;;;;;23.55;2.90;;;;;;;28.89;45.03;100592.28;5072087;27;70125;-32
2021/07/19 09:15:58;;;;;;;18.73;2.50;;;;;;;29.07;44.88;100637.53;5075302;27;65888;-32
2021/07/19 09:18:30;;;;;;;20.08;3.00;;;;;;;29.03;44.72;100641.66;5070404;27;70119;-34
2021/07/19 09:21:00;;;;;;;9.13;2.30;;;;;;;28.97;44.17;100646.03;5065527;27;66544;-33
2021/07/19 09:23:30;;;;;;;10.93;2.83;;;;;;;28.94;44.02;100636.47;5066572;27;70183;-33
2021/07/19 09:26:10;;;;;;;11.80;3.08;;;;;;;28.90;48.39;100626.34;5068637;27;66980;-31
2021/07/19 09:28:43;;;;;;;14.05;3.05;;;;;;;28.82;52.54;100603.09;5073303;27;70486;-32
2021/07/19 09:31:14;;;;;;;6.72;2.85;;;;;;;28.91;54.49;100595.59;5071260;27;66589;-30
2021/07/19 09:33:53;;;;;;;8.63;2.85;;;;;;;28.57;55.91;100523.88;5070499;27;69248;-32
2021/07/19 09:36:30;;;;;;;10.43;4.18;;;;;;;28.94;57.63;100579.78;5069688;27;65139;-33
2021/07/19 09:39:06;;;;;;;4.72;3.40;;;;;;;28.93;59.38;100578.13;5068330;27;69024;-32
2021/07/19 09:41:37;;;;;;;4.75;3.42;;;;;;;28.85;60.32;100569.44;5067835;27;65282;-32
2021/07/19 09:44:08;;;;;;;5.25;3.28;;;;;;;28.88;60.71;100564.44;5070261;27;69399;-33
2021/07/19 09:46:40;;;;;;;8.00;3.03;;;;;;;29.05;59.58;100578.31;5074079;27;65297;-32
2021/07/19 09:49:11;;;;;;;8.82;3.20;;;;;;;29.03;60.06;100548.03;5064882;27;70292;-34
2021/07/19 09:51:43;;;;;;;5.43;3.08;;;;;;;29.19;60.08;100565.56;5071621;27;65011;-37
2021/07/19 09:54:39;;;;;;;15.57;3.25;;;;;;;29.31;60.76;100580.06;5069935;27;70595;-33
2021/07/19 09:57:13;;;;;;;16.88;3.75;;;;;;;29.42;60.54;100583.09;5069441;27;66729;-36
2021/07/19 09:59:51;;;;;;;7.93;3.50;;;;;;;29.50;61.11;100580.13;5050794;27;71165;-33
2021/07/19 10:02:36;;;;;;;15.70;3.08;;;;;;;29.38;61.30;100529.50;5072262;27;65510;-35
2021/07/19 10:05:10;;;;;;;16.40;3.10;;;;;;;29.62;60.46;100543.28;5071338;27;70411;-33
2021/07/19 10:07:46;;;;;;;14.27;3.20;;;;;;;29.55;60.72;100501.94;5062884;27;66683;-32
2021/07/19 10:10:17;;;;;;;4.53;3.28;;;;;;;29.81;60.68;100526.09;5055978;28;69830;-38
2021/07/19 10:12:58;;;;;;;9.95;3.58;;;;;;;29.57;60.87;100470.13;5073701;27;66699;-33
2021/07/19 10:15:31;;;;;;;8.88;4.50;;;;;;;29.99;60.89;100519.06;5070808;27;70563;-33
2021/07/19 10:18:10;;;;;;;6.78;3.15;;;;;;;29.90;60.96;100523.09;5072518;27;65968;-31
2021/07/19 10:20:41;;;;;;;7.07;5.47;;;;;;;30.08;60.35;100547.47;5065498;27;70170;-32
2021/07/19 10:23:13;;;;;;;15.07;6.38;;;;;;;30.12;60.32;100564.91;5070895;27;66026;-33
2021/07/19 10:25:44;;;;;;;;;;;;;;;29.96;61.34;100576.28;5070991;27;69843;-33
2021/07/19 10:28:15;;;;;;;8.40;6.18;;;;;;;30.18;60.46;100564.03;5075971;27;66411;-32
2021/07/19 10:30:49;;;;;;;7.97;5.93;;;;;;;30.24;60.06;100573.97;5069657;27;70085;-34
2021/07/19 10:33:26;;;;;;;7.90;5.80;;;;;;;30.28;59.82;100569.78;5074086;27;66536;-33
2021/07/19 10:36:02;;;;;;;8.68;5.30;;;;;;;30.28;60.40;100574.34;5068750;27;70418;-33
2021/07/19 10:38:35;;;;;;;18.35;6.53;;;;;;;30.34;60.37;100572.63;5070461;27;66847;-32
2021/07/19 10:41:05;;;;;;;16.00;6.68;;;;;;;30.35;60.83;100579.72;5070516;27;70194;-33
2021/07/19 10:43:35;;;;;;;20.33;6.55;;;;;;;30.37;60.84;100583.84;5069202;27;65322;-32
2021/07/19 10:46:11;;;;;;;12.38;6.10;;;;;;;30.40;60.79;100586.09;5069048;27;69199;-33
2021/07/19 10:48:43;;;;;;;9.88;5.80;;;;;;;30.35;60.51;100585.13;5052585;27;66137;-34
2021/07/19 10:51:17;;;;;;;8.27;4.93;;;;;;;30.19;60.39;100560.25;5072455;27;70303;-35
2021/07/19 10:53:47;;;;;;;8.65;4.97;;;;;;;30.37;60.38;100588.41;5068386;27;66227;-35
2021/07/19 10:56:28;;;;;;;7.95;4.95;;;;;;;30.42;60.18;100604.81;5070080;27;69564;-35
2021/07/19 10:59:00;;;;;;;5.97;5.10;;;;;;;30.40;59.77;100604.22;5070171;27;65233;-36
2021/07/19 11:01:31;;;;;;;8.93;4.78;;;;;;;30.38;60.40;100606.31;5069368;27;70160;-37
2021/07/19 11:04:15;;;;;;;6.25;4.88;;;;;;;30.42;60.70;100623.75;5070323;27;65306;-35
2021/07/19 11:06:49;;;;;;;10.43;5.68;;;;;;;30.43;59.87;100626.25;5074799;27;69648;-35
2021/07/19 11:09:21;;;;;;;5.72;4.78;;;;;;;30.45;59.64;100628.72;5070977;27;66408;-35
2021/07/19 11:11:51;;;;;;;7.22;4.97;;;;;;;30.42;60.29;100629.16;5073951;27;69467;-36
2021/07/19 11:14:22;;;;;;;11.35;5.05;;;;;;;30.44;59.89;100637.91;5073950;27;65580;-35
2021/07/19 11:16:55;;;;;;;6.15;5.50;;;;;;;30.40;59.58;100634.81;5070304;27;70143;-36
2021/07/19 11:19:39;;;;;;;8.02;5.22;;;;;;;30.44;60.00;100648.72;5076158;27;64970;-36
2021/07/19 11:22:27;;;;;;;5.70;5.10;;;;;;;30.45;60.23;100655.78;5069518;27;70477;-37
2021/07/19 11:25:12;;;;;;;6.30;5.38;;;;;;;30.18;61.14;100623.53;5074256;27;65599;-37
2021/07/19 11:27:45;;;;;;;7.85;5.72;;;;;;;30.27;60.99;100654.69;5070614;27;69469;-38
2021/07/19 11:30:17;;;;;;;18.65;6.28;;;;;;;30.20;61.60;100659.31;5069496;27;65474;-37
2021/07/19 11:32:48;;;;;;;12.13;6.05;;;;;;;30.11;62.04;100665.22;5066262;27;69631;-34
2021/07/19 11:35:24;;;;;;;10.38;8.98;;;;;;;29.82;61.94;100637.75;5074657;27;66307;-34
2021/07/19 11:38:02;;;;;;;10.07;9.05;;;;;;;29.89;62.64;100672.84;5070540;27;69908;-36
2021/07/19 11:40:37;;;;;;;13.65;9.63;;;;;;;29.77;62.64;100676.25;5068312;27;66010;-40
2021/07/19 11:43:15;;;;;;;12.48;9.80;;;;;;;29.67;63.49;100675.94;5070084;27;69828;-36
2021/07/19 11:45:49;;;;;;;10.32;9.40;;;;;;;29.60;62.71;100685.91;5068651;27;65600;-35
2021/07/19 11:48:23;;;;;;;14.23;8.65;;;;;;;29.57;63.21;100691.75;5071217;27;70214;-35
2021/07/19 11:50:58;;;;;;;12.75;9.65;;;;;;;29.52;63.76;100688.84;5061909;27;66313;-36
2021/07/19 11:53:29;;;;;;;11.38;10.02;;;;;;;29.44;63.59;100692.63;5072866;27;68303;-42
2021/07/19 11:56:06;;;;;;;12.00;10.00;;;;;;;29.37;64.80;100689.97;5070975;27;65477;-38
2021/07/19 11:58:41;;;;;;;13.60;10.45;;;;;;;29.28;64.33;100693.97;5067582;27;70527;-35
2021/07/19 12:01:12;;;;;;;18.10;11.95;;;;;;;29.31;65.14;100706.19;5068828;27;65956;-36
2021/07/19 12:03:42;;;;;;;17.48;11.68;;;;;;;29.23;65.00;100696.47;5066458;27;70096;-36